ADDS METAR Data INFO
IDs: Format: Raw Decoded Include TAF

Data at: 1251 UTC 19 Oct 2017

KW63 191235Z AUTO 00000KT 10SM CLR 05/05 A3031 RMK AO1
KW63 191215Z AUTO 00000KT 10SM CLR 03/03 A3030 RMK AO1
KW63 191155Z AUTO 00000KT 10SM CLR 03/03 A3030 RMK AO1
KW63 191135Z AUTO 00000KT 10SM CLR 02/02 A3030 RMK AO1
KW63 191115Z AUTO 00000KT 10SM CLR 02/02 A3030 RMK AO1
KW63 191055Z AUTO 00000KT 10SM CLR 03/03 A3030 RMK AO1
KW63 191035Z AUTO 00000KT 10SM CLR 03/03 A3030 RMK AO1
KW63 191020Z AUTO 00000KT 10SM CLR 03/03 A3030 RMK AO1
KW63 190955Z AUTO 00000KT 10SM BKN001 03/03 A3030 RMK AO1
KW63 190935Z AUTO 00000KT 3/4SM OVC001 03/03 A3030 RMK AO1
KW63 190915Z AUTO 00000KT 7SM BKN001 05/05 A3029 RMK AO1
KW63 190855Z AUTO 00000KT 10SM SCT001 04/04 A3030 RMK AO1
KW63 190835Z AUTO 00000KT 10SM BKN001 05/05 A3029 RMK AO1
KW63 190815Z AUTO 00000KT 10SM CLR 04/04 A3030 RMK AO1
KW63 190755Z AUTO 00000KT 10SM CLR 04/04 A3030 RMK AO1
KW63 190735Z AUTO 00000KT 10SM CLR 05/05 A3030 RMK AO1
KW63 190715Z AUTO 00000KT 10SM CLR 05/05 A3030 RMK AO1
KW63 190655Z AUTO 00000KT 10SM CLR 05/05 A3030 RMK AO1
KW63 190635Z AUTO 00000KT 10SM CLR 05/05 A3031 RMK AO1
KW63 190615Z AUTO 00000KT 10SM CLR 05/05 A3032 RMK AO1
KW63 190555Z AUTO 00000KT 10SM CLR 05/05 A3032 RMK AO1
KW63 190535Z AUTO 00000KT 10SM CLR 06/06 A3032 RMK AO1
KW63 190515Z AUTO 00000KT 10SM CLR 05/05 A3032 RMK AO1
KW63 190455Z AUTO 00000KT 10SM CLR 06/06 A3032 RMK AO1
KW63 190435Z AUTO 00000KT 10SM CLR 06/06 A3032 RMK AO1
KW63 190415Z AUTO 00000KT 10SM CLR 06/06 A3032 RMK AO1
KW63 190355Z AUTO 00000KT 10SM CLR 06/06 A3032 RMK AO1
KW63 190335Z AUTO 00000KT 10SM CLR 07/07 A3033 RMK AO1
KW63 190315Z AUTO 00000KT 10SM CLR 06/06 A3033 RMK AO1
KW63 190255Z AUTO 00000KT 10SM CLR 07/07 A3033 RMK AO1
KW63 190235Z AUTO 00000KT 10SM CLR 07/07 A3032 RMK AO1
KW63 190215Z AUTO 00000KT 10SM CLR 07/07 A3032 RMK AO1
KW63 190155Z AUTO 00000KT 10SM CLR 07/07 A3033 RMK AO1
KW63 190135Z AUTO 00000KT 10SM CLR 07/07 A3033 RMK AO1
KW63 190115Z AUTO 00000KT 10SM CLR 08/07 A3033 RMK AO1
KW63 190055Z AUTO 00000KT 10SM CLR 08/07 A3033 RMK AO1
KW63 190035Z AUTO 00000KT 10SM CLR 08/07 A3033 RMK AO1
KW63 190015Z AUTO 00000KT 10SM CLR 09/07 A3032 RMK AO1
KW63 182355Z AUTO 00000KT 10SM CLR 10/06 A3032 RMK AO1
KW63 182335Z AUTO 00000KT 10SM CLR 10/06 A3032 RMK AO1
KW63 182315Z AUTO 00000KT 10SM CLR 11/06 A3032 RMK AO1
KW63 182255Z AUTO 00000KT 10SM CLR 12/07 A3032 RMK AO1
KW63 182235Z AUTO 00000KT 10SM CLR 13/07 A3032 RMK AO1
KW63 182215Z AUTO 00000KT 10SM CLR 15/06 A3032 RMK AO1
KW63 182155Z AUTO 00000KT 10SM CLR 17/04 A3031 RMK AO1
KW63 182135Z AUTO 00000KT 10SM CLR 18/02 A3032 RMK AO1
KW63 182115Z AUTO 00000KT 10SM CLR 18/02 A3032 RMK AO1
KW63 182055Z AUTO 11004KT 10SM CLR 18/01 A3032 RMK AO1
KW63 182035Z AUTO 00000KT 10SM CLR 19/02 A3033 RMK AO1
KW63 182015Z AUTO 00000KT 10SM CLR 19/02 A3033 RMK AO1
KW63 181955Z AUTO 00000KT 10SM CLR 18/02 A3033 RMK AO1
KW63 181935Z AUTO 15004KT 10SM CLR 18/03 A3034 RMK AO1
KW63 181915Z AUTO 00000KT 10SM CLR 18/03 A3034 RMK AO1
KW63 181855Z AUTO 04004KT 10SM CLR 18/04 A3035 RMK AO1
KW63 181835Z AUTO 12003KT 10SM CLR 18/04 A3035 RMK AO1
KW63 181815Z AUTO 00000KT 10SM CLR 18/03 A3036 RMK AO1
KW63 181755Z AUTO 07006KT 10SM CLR 17/03 A3037 RMK AO1
KW63 181735Z AUTO 07004KT 10SM CLR 17/02 A3038 RMK AO1
KW63 181715Z AUTO 11006KT 10SM CLR 17/02 A3039 RMK AO1
KW63 181655Z AUTO 06003KT 10SM CLR 17/04 A3040 RMK AO1
KW63 181635Z AUTO 07004KT 10SM CLR 17/05 A3041 RMK AO1
KW63 181615Z AUTO 07004KT 10SM CLR 16/05 A3041 RMK AO1
KW63 181555Z AUTO 00000KT 10SM CLR 16/05 A3042 RMK AO1
KW63 181535Z AUTO 04004KT 10SM CLR 15/06 A3042 RMK AO1
KW63 181515Z AUTO 00000KT 10SM CLR 14/05 A3042 RMK AO1
KW63 181455Z AUTO 00000KT 10SM CLR 13/07 A3042 RMK AO1
KW63 181435Z AUTO 00000KT 10SM CLR 12/07 A3041 RMK AO1
KW63 181415Z AUTO 00000KT 10SM CLR 11/07 A3041 RMK AO1
KW63 181355Z AUTO 00000KT 10SM CLR 10/06 A3041 RMK AO1
KW63 181335Z AUTO 00000KT 10SM CLR 09/07 A3040 RMK AO1
KW63 181315Z AUTO 00000KT 5SM CLR 07/07 A3040 RMK AO1
KW63 181255Z AUTO 00000KT 10SM CLR 06/06 A3040 RMK AO1
KW63 181235Z AUTO 00000KT 10SM CLR 03/03 A3039 RMK AO1
KW63 181215Z AUTO 00000KT 10SM CLR 02/02 A3038 RMK AO1
KW63 181155Z AUTO 00000KT 10SM CLR 01/01 A3038 RMK AO1
KW63 181135Z AUTO 00000KT 10SM CLR 01/01 A3037 RMK AO1
KW63 181115Z AUTO 00000KT 10SM CLR 01/01 A3037 RMK AO1
KW63 181055Z AUTO 00000KT 10SM CLR 02/02 A3037 RMK AO1
KW63 181035Z AUTO 00000KT 10SM CLR 02/02 A3036 RMK AO1
KW63 181015Z AUTO 00000KT 7SM SCT001 02/02 A3036 RMK AO1
KW63 180955Z AUTO 00000KT 5SM OVC001 02/02 A3035 RMK AO1
KW63 180935Z AUTO 00000KT 10SM BKN001 02/02 A3035 RMK AO1
KW63 180915Z AUTO 00000KT 10SM SCT001 03/03 A3034 RMK AO1
KW63 180855Z AUTO 00000KT 10SM CLR 03/03 A3035 RMK AO1
KW63 180835Z AUTO 00000KT 10SM CLR 03/03 A3035 RMK AO1
KW63 180815Z AUTO 00000KT 10SM CLR 03/03 A3034 RMK AO1
KW63 180755Z AUTO 00000KT 10SM CLR 03/03 A3034 RMK AO1
KW63 180735Z AUTO 00000KT 10SM CLR 03/03 A3034 RMK AO1
KW63 180715Z AUTO 00000KT 10SM CLR 03/03 A3034 RMK AO1
KW63 180655Z AUTO 00000KT 10SM CLR 04/04 A3033 RMK AO1
KW63 180635Z AUTO 00000KT 10SM CLR 03/03 A3033 RMK AO1
KW63 180615Z AUTO 00000KT 10SM CLR 04/04 A3033 RMK AO1
KW63 180555Z AUTO 00000KT 10SM CLR 04/04 A3033 RMK AO1
KW63 180535Z AUTO 00000KT 10SM CLR 03/03 A3033 RMK AO1
KW63 180515Z AUTO 00000KT 10SM CLR 04/04 A3033 RMK AO1
KW63 180455Z AUTO 00000KT 10SM CLR 04/04 A3033 RMK AO1
KW63 180435Z AUTO 00000KT 10SM CLR 05/05 A3033 RMK AO1
KW63 180415Z AUTO 00000KT 10SM CLR 05/05 A3034 RMK AO1
KW63 180400Z AUTO 00000KT 10SM CLR 05/05 A3034 RMK AO1
KW63 180335Z AUTO 00000KT 10SM CLR 05/05 A3035 RMK AO1
KW63 180315Z AUTO 00000KT 10SM CLR 05/05 A3035 RMK AO1
KW63 180255Z AUTO 00000KT 10SM CLR 06/06 A3035 RMK AO1
KW63 180235Z AUTO 00000KT 10SM CLR 07/06 A3035 RMK AO1
KW63 180215Z AUTO 00000KT 10SM CLR 06/06 A3034 RMK AO1
KW63 180155Z AUTO 00000KT 10SM CLR 06/06 A3034 RMK AO1
KW63 180135Z AUTO 00000KT 10SM CLR 06/06 A3034 RMK AO1
KW63 180115Z AUTO 00000KT 10SM CLR 07/06 A3033 RMK AO1
KW63 180055Z AUTO 00000KT 10SM CLR 08/05 A3032 RMK AO1